Aérodrome :
LOGIN :

S'inscrire | Disclaimer

   EN    FR    IT 

 










Légende :    VFR   VFR Marginal   IFR   IFR Intensif   IFR Très Intensif
Visi : 
Plafond : 
>= 8 km
>= 3000ft
5 à 8 km
1000 à 3000 ft
1500m à 5 km
500 à 1000 ft
800 à 1500m
200 à 500 ft
< 800m
< 200 ft
Symboles :   Orages  Brouillard  Fortes neiges  Fortes précipitations  Vent > 20 kt
SIGMETs :   Divers  Orages  Givrage  Turbulence  Onde Orograph.  Cendres Volcan.







- Altitude de l'aérodrome : 1521 ft
- Code IATA : NCY
- Voir les cartes d'approche


LFLP - Annecy

DERNIER METAR :
  • 232030Z AUTO VRB02KT CAVOK 14/09 Q1021

METARs EXPIRÉS :
  • 232000Z AUTO 30005KT CAVOK 15/10 Q1020
  • 231930Z AUTO VRB02KT CAVOK 16/09 Q1020
  • 231900Z AUTO 15003KT 080V160 CAVOK 15/10 Q1020 NOSIG
  • 231830Z AUTO 34003KT 310V020 CAVOK 17/09 Q1019 NOSIG
  • 231800Z AUTO 32008KT 290V350 CAVOK 18/10 Q1019 NOSIG

TAF TAF LFLP
Valide du 23 à 15h jusqu'au 24 à 15h UTC


231400Z 2315/2415 VRB05KT CAVOK
Pas de NOTAMs connus pour ce terrain.
3 SIGMETs publiés pour la FIR Marseille (LFMM) :
 
Annulation du SIGMET 2 
LFMM SIGMET 4 VALID 231850/232100 LFPW
LFMM MARSEILLE FIR/UIR CNL SIGMET 2 231700/232100=
Orages noyés dans la masse
LFMM SIGMET 3 VALID 231900/232100 LFPW
LFMM MARSEILLE FIR/UIR EMBD TS OBS WI N4315 E00230 - N4515 E00245 - N4515 E00500 - N4430 E00500 - N4315 E00230 TOP FL350 MOV E 15KT NC=
SIGMET 2  ANNULÉ :
Orages noyés dans la masse
LFMM SIGMET 2 VALID 231700/232100 LFPW
LFMM MARSEILLE FIR/UIR EMBD TS FCST WI N4400 E00245 - N4545 E00300 - N4530 E00415 - N4445 E00530 - N4415 E00415 - N4400 E00245 TOP FL390 MOV E 25KT INTSF=



MET'MAP, la Météo Aéronautique d'un coup d'oeil ! - Copyright ORBIFLY Décembre 2007 - Disclaimer

ORBIFLY MET'MAP TEAM :

Programmation & Développement : Alexandra Zaïnal
Conception & Développement : Baudouin d'Aumeries
Co-Programmation & Développement : Marc-Olivier Méhu
Soutien technique & logistique : Manuel Goepfert

Contact : metmap@orbifly.com




SOURCES & CREDITS :

   NOAA